createdAt,value
2022-08-23T00:02:26.534Z,20.65
2022-08-23T00:05:08.749Z,20.60
2022-08-23T00:07:39.524Z,20.52
2022-08-23T00:10:09.051Z,20.47
2022-08-23T00:12:36.097Z,20.40
2022-08-23T00:15:03.664Z,20.31
2022-08-23T00:17:33.419Z,20.25
2022-08-23T00:20:04.343Z,20.17
2022-08-23T00:22:30.804Z,20.10
2022-08-23T00:24:57.240Z,20.06
2022-08-23T00:27:23.725Z,20.01
2022-08-23T00:29:52.890Z,19.97
2022-08-23T00:32:23.418Z,19.93
2022-08-23T00:34:50.743Z,19.90
2022-08-23T00:37:18.870Z,19.88
2022-08-23T00:39:45.723Z,19.82
2022-08-23T00:42:47.644Z,19.75
2022-08-23T00:45:36.892Z,19.69
2022-08-23T00:48:06.354Z,19.63
2022-08-23T00:50:41.594Z,19.59
2022-08-23T00:53:23.016Z,19.53
2022-08-23T00:55:52.560Z,19.48
2022-08-23T00:58:20.835Z,19.45
2022-08-23T01:00:50.367Z,19.40
2022-08-23T01:03:20.639Z,19.38
2022-08-23T01:06:15.228Z,19.36
2022-08-23T01:08:46.958Z,19.34
2022-08-23T01:11:22.685Z,19.32
2022-08-23T01:13:56.741Z,19.27
2022-08-23T01:16:33.690Z,19.22
2022-08-23T01:19:04.675Z,19.18
2022-08-23T01:21:45.484Z,19.15
2022-08-23T01:24:19.252Z,19.11
2022-08-23T01:27:00.465Z,19.03
2022-08-23T01:29:26.982Z,18.96
2022-08-23T01:31:55.716Z,18.90
2022-08-23T01:34:27.276Z,18.85
2022-08-23T01:36:55.370Z,18.77
2022-08-23T01:39:21.829Z,18.73
2022-08-23T01:41:48.348Z,18.67
2022-08-23T01:44:14.792Z,18.61
2022-08-23T01:46:45.248Z,18.56
2022-08-23T01:49:12.433Z,18.51
2022-08-23T01:51:39.113Z,18.49
2022-08-23T01:54:05.924Z,18.47
2022-08-23T01:56:38.807Z,18.43
2022-08-23T01:59:07.894Z,18.38
2022-08-23T02:01:35.552Z,18.33
2022-08-23T02:04:04.751Z,18.28
2022-08-23T02:06:32.700Z,18.25
2022-08-23T02:09:03.495Z,18.21
2022-08-23T02:11:33.922Z,18.18
2022-08-23T02:14:02.781Z,18.15
2022-08-23T02:16:33.723Z,18.12
2022-08-23T02:19:02.419Z,18.07
2022-08-23T02:21:32.953Z,18.05
2022-08-23T02:24:03.009Z,18.02
2022-08-23T02:26:31.481Z,17.98
2022-08-23T02:28:58.031Z,17.94
2022-08-23T02:31:26.146Z,17.90
2022-08-23T02:36:38.368Z,17.78
2022-08-23T02:39:06.667Z,17.74
2022-08-23T02:41:34.890Z,17.71
2022-08-23T02:44:01.389Z,17.66
2022-08-23T02:46:28.766Z,17.62
2022-08-23T02:48:56.425Z,17.57
2022-08-23T02:51:23.232Z,17.51
2022-08-23T02:53:50.118Z,17.48
2022-08-23T02:56:21.940Z,17.48
2022-08-23T02:58:54.618Z,17.45
2022-08-23T03:01:34.820Z,17.42
2022-08-23T03:04:06.128Z,17.39
2022-08-23T03:06:32.919Z,17.36
2022-08-23T03:09:00.024Z,17.34
2022-08-23T03:11:26.910Z,17.34
2022-08-23T03:13:56.318Z,17.31
2022-08-23T03:16:23.462Z,17.30
2022-08-23T03:18:50.778Z,17.26
2022-08-23T03:21:17.833Z,17.22
2022-08-23T03:23:45.796Z,17.19
2022-08-23T03:26:14.009Z,17.17
2022-08-23T03:28:42.609Z,17.16
2022-08-23T03:31:10.287Z,17.15
2022-08-23T03:33:37.292Z,17.16
2022-08-23T03:36:06.384Z,17.16
2022-08-23T03:38:34.177Z,17.15
2022-08-23T03:41:01.271Z,17.13
2022-08-23T03:43:27.887Z,17.10
2022-08-23T03:45:54.376Z,17.05
2022-08-23T03:48:20.815Z,17.00
2022-08-23T03:50:47.457Z,16.96
2022-08-23T03:53:14.890Z,16.90
2022-08-23T03:55:43.041Z,16.85
2022-08-23T03:58:10.531Z,16.80
2022-08-23T04:00:37.818Z,16.77
2022-08-23T04:03:04.584Z,16.75
2022-08-23T04:05:31.070Z,16.75
2022-08-23T04:07:57.565Z,16.76
2022-08-23T04:10:24.433Z,16.75
2022-08-23T04:12:52.596Z,16.74
2022-08-23T04:15:19.756Z,16.74
2022-08-23T04:17:46.198Z,16.77
2022-08-23T04:20:12.626Z,16.80
2022-08-23T04:22:39.085Z,16.81
2022-08-23T04:25:12.273Z,16.82
2022-08-23T04:27:52.407Z,16.84
2022-08-23T04:30:20.429Z,16.84
2022-08-23T04:32:47.468Z,16.84
2022-08-23T04:35:14.383Z,16.83
2022-08-23T04:37:40.824Z,16.83
2022-08-23T04:40:26.548Z,16.83
2022-08-23T04:42:52.963Z,16.80
2022-08-23T04:45:19.475Z,16.77
2022-08-23T04:47:45.940Z,16.75
2022-08-23T04:50:12.540Z,16.72
2022-08-23T04:52:38.976Z,16.71
2022-08-23T04:55:06.014Z,16.69
2022-08-23T04:57:32.521Z,16.67
2022-08-23T04:59:59.690Z,16.65
2022-08-23T05:02:26.105Z,16.65
2022-08-23T05:04:52.515Z,16.67
2022-08-23T05:07:18.932Z,16.68
2022-08-23T05:09:45.867Z,16.67
2022-08-23T05:12:12.331Z,16.69
2022-08-23T05:14:39.132Z,16.70
2022-08-23T05:17:05.589Z,16.70
2022-08-23T05:19:32.680Z,16.71
2022-08-23T05:21:59.072Z,16.72
2022-08-23T05:24:25.625Z,16.73
2022-08-23T05:26:52.137Z,16.73
2022-08-23T05:29:18.643Z,16.74
2022-08-23T05:31:46.271Z,16.74
2022-08-23T05:34:14.196Z,16.76
2022-08-23T05:36:47.484Z,16.78
2022-08-23T05:39:26.585Z,16.78
2022-08-23T05:42:04.122Z,16.81
2022-08-23T05:44:30.631Z,16.85
2022-08-23T05:47:04.155Z,16.86
2022-08-23T05:49:36.870Z,16.91
2022-08-23T05:52:05.757Z,16.95
2022-08-23T05:54:32.896Z,17.00
2022-08-23T05:56:59.378Z,17.07
2022-08-23T05:59:25.934Z,17.13
2022-08-23T06:01:52.652Z,17.17
2022-08-23T06:04:19.347Z,17.24
2022-08-23T06:06:45.914Z,17.31
2022-08-23T06:09:14.957Z,17.39
2022-08-23T06:11:46.859Z,17.48
2022-08-23T06:14:14.343Z,17.58
2022-08-23T06:16:47.497Z,17.71
2022-08-23T06:19:14.945Z,17.82
2022-08-23T06:21:42.629Z,17.93
2022-08-23T06:24:09.957Z,18.08
2022-08-23T06:26:39.624Z,18.20
2022-08-23T06:29:11.340Z,18.33
2022-08-23T06:31:45.635Z,18.47
2022-08-23T06:34:34.492Z,18.60
2022-08-23T06:37:04.735Z,18.73
2022-08-23T06:39:35.438Z,18.86
2022-08-23T06:42:22.271Z,19.02
2022-08-23T06:44:52.548Z,19.17
2022-08-23T06:47:23.097Z,19.32
2022-08-23T06:49:52.622Z,19.45
2022-08-23T06:52:25.580Z,19.58
2022-08-23T06:54:52.453Z,19.70
2022-08-23T06:57:20.732Z,19.82
2022-08-23T06:59:49.381Z,19.96
2022-08-23T07:02:16.109Z,20.07
2022-08-23T07:04:42.964Z,20.18
2022-08-23T07:07:11.847Z,20.31
2022-08-23T07:09:40.485Z,20.46
2022-08-23T07:12:07.562Z,20.53
2022-08-23T07:14:34.280Z,20.63
2022-08-23T07:17:03.336Z,20.74
2022-08-23T07:19:32.223Z,20.86
2022-08-23T07:22:00.352Z,21.02
2022-08-23T07:24:32.709Z,21.13
2022-08-23T07:27:01.426Z,21.29
2022-08-23T07:29:29.915Z,21.42
2022-08-23T07:31:56.862Z,21.56
2022-08-23T07:34:24.936Z,21.69
2022-08-23T07:36:53.235Z,21.83
2022-08-23T07:39:21.399Z,21.97
2022-08-23T07:41:48.081Z,22.08
2022-08-23T07:44:18.613Z,22.22
2022-08-23T07:46:46.721Z,22.35
2022-08-23T07:49:14.492Z,22.39
2022-08-23T07:51:42.688Z,22.51
2022-08-23T07:54:10.720Z,22.61
2022-08-23T07:56:37.554Z,22.75
2022-08-23T07:59:05.523Z,22.77
2022-08-23T08:01:32.189Z,22.80
2022-08-23T08:04:01.255Z,22.95
2022-08-23T08:06:32.410Z,23.08
2022-08-23T08:08:59.843Z,23.21
2022-08-23T08:11:33.886Z,23.33
2022-08-23T08:14:07.310Z,23.38
2022-08-23T08:16:46.103Z,23.43
2022-08-23T08:19:17.059Z,23.49
2022-08-23T08:21:47.179Z,23.61
2022-08-23T08:24:16.314Z,23.74
2022-08-23T08:26:44.350Z,23.78
2022-08-23T08:29:12.359Z,23.89
2022-08-23T08:31:41.061Z,23.87
2022-08-23T08:34:08.251Z,24.02
2022-08-23T08:36:41.953Z,24.06
2022-08-23T08:39:11.919Z,24.19
2022-08-23T08:42:09.020Z,24.25
2022-08-23T08:44:38.600Z,24.33
2022-08-23T08:47:25.381Z,24.34
2022-08-23T08:50:01.302Z,24.36
2022-08-23T08:52:33.408Z,24.44
2022-08-23T08:55:04.871Z,24.47
2022-08-23T08:57:39.744Z,24.62
2022-08-23T09:00:14.717Z,24.75
2022-08-23T09:02:42.588Z,24.84
2022-08-23T09:05:33.808Z,24.95
2022-08-23T09:08:15.507Z,25.06
2022-08-23T09:11:20.590Z,25.10
2022-08-23T09:14:05.560Z,25.28
2022-08-23T09:16:39.761Z,25.40
2022-08-23T09:19:06.516Z,25.46
2022-08-23T09:21:53.141Z,25.56
2022-08-23T09:24:19.567Z,25.71
2022-08-23T09:26:46.051Z,25.63
2022-08-23T09:29:21.660Z,25.79
2022-08-23T09:31:55.752Z,25.97
2022-08-23T09:34:42.727Z,26.14
2022-08-23T09:37:18.334Z,26.30
2022-08-23T09:39:49.611Z,26.52
2022-08-23T09:42:29.849Z,26.75
2022-08-23T09:44:56.982Z,26.94
2022-08-23T09:47:33.953Z,27.13
2022-08-23T09:50:26.317Z,27.34
2022-08-23T09:53:11.636Z,27.55
2022-08-23T09:55:57.188Z,27.77
2022-08-23T09:58:36.108Z,27.98
2022-08-23T10:01:38.710Z,28.17
2022-08-23T10:04:15.561Z,28.40
2022-08-23T10:06:45.973Z,28.53
2022-08-23T10:09:30.872Z,28.63
2022-08-23T10:11:59.960Z,28.79
2022-08-23T10:14:30.703Z,28.94
2022-08-23T10:17:24.033Z,29.11
2022-08-23T10:20:22.113Z,29.30
2022-08-23T10:23:04.294Z,29.33
2022-08-23T10:25:33.828Z,29.51
2022-08-23T10:28:45.645Z,29.74
2022-08-23T10:31:34.760Z,29.97
2022-08-23T10:34:23.096Z,30.11
2022-08-23T10:37:17.101Z,30.14
2022-08-23T10:39:53.783Z,30.25
2022-08-23T10:42:45.129Z,30.48
2022-08-23T10:45:18.565Z,30.61
2022-08-23T10:48:15.800Z,30.59
2022-08-23T10:50:56.194Z,30.59
2022-08-23T10:53:29.281Z,30.59
2022-08-23T10:56:03.909Z,30.75
2022-08-23T10:58:41.263Z,30.91
2022-08-23T11:01:09.407Z,31.16
2022-08-23T11:03:44.175Z,31.31
2022-08-23T11:06:31.852Z,31.21
2022-08-23T11:09:06.486Z,31.36
2022-08-23T11:12:11.191Z,31.58
2022-08-23T11:14:42.570Z,31.41
2022-08-23T11:17:12.330Z,31.62
2022-08-23T11:19:52.515Z,31.88
2022-08-23T11:22:20.617Z,32.11
2022-08-23T11:24:58.170Z,32.14
2022-08-23T11:27:32.221Z,32.40
2022-08-23T11:30:36.877Z,32.36
2022-08-23T11:33:21.233Z,32.68
2022-08-23T11:35:49.883Z,32.72
2022-08-23T11:38:37.669Z,32.84
2022-08-23T11:41:24.821Z,32.96
2022-08-23T11:43:54.279Z,33.04
2022-08-23T11:46:26.890Z,33.33
2022-08-23T11:48:53.336Z,33.53
2022-08-23T11:51:48.805Z,33.64
2022-08-23T11:54:28.314Z,33.59
2022-08-23T11:57:29.436Z,33.99
2022-08-23T12:00:17.813Z,34.27
2022-08-23T12:03:06.904Z,34.67
2022-08-23T12:05:39.552Z,34.68
2022-08-23T12:08:05.982Z,34.64
2022-08-23T12:10:41.072Z,34.32
2022-08-23T12:13:19.606Z,34.11
2022-08-23T12:16:11.754Z,33.92
2022-08-23T12:18:50.639Z,34.11
2022-08-23T12:21:20.982Z,34.26
2022-08-23T12:23:54.038Z,34.64
2022-08-23T12:26:26.770Z,34.54
2022-08-23T12:29:18.742Z,34.57
2022-08-23T12:32:04.124Z,34.84
2022-08-23T12:34:36.704Z,34.97
2022-08-23T12:37:19.709Z,35.04
2022-08-23T12:40:02.304Z,35.46
2022-08-23T12:42:33.473Z,35.72
2022-08-23T12:45:01.775Z,35.39
2022-08-23T12:47:28.260Z,35.37
2022-08-23T12:50:32.623Z,35.60
2022-08-23T12:53:05.267Z,35.86
2022-08-23T12:55:40.918Z,36.01
2022-08-23T12:58:08.784Z,35.93
2022-08-23T13:00:52.365Z,35.45
2022-08-23T13:03:28.485Z,35.51
2022-08-23T13:06:06.945Z,35.02
2022-08-23T13:08:45.572Z,34.51
2022-08-23T13:11:14.778Z,34.53
2022-08-23T13:13:44.030Z,34.48
2022-08-23T13:16:42.124Z,34.67
2022-08-23T13:19:17.729Z,35.07
2022-08-23T13:21:45.140Z,35.46
2022-08-23T13:24:38.765Z,35.20
2022-08-23T13:27:24.622Z,34.92
2022-08-23T13:29:59.244Z,34.55
2022-08-23T13:32:29.747Z,34.83
2022-08-23T13:35:43.506Z,35.00
2022-08-23T13:38:20.517Z,35.16
2022-08-23T13:41:01.268Z,35.54
2022-08-23T13:43:45.877Z,35.67
2022-08-23T13:46:19.369Z,35.68
2022-08-23T13:49:05.232Z,35.89
2022-08-23T13:51:38.869Z,36.01
2022-08-23T13:54:15.615Z,36.09
2022-08-23T13:56:55.126Z,36.28
2022-08-23T13:59:26.884Z,36.57
2022-08-23T14:02:01.591Z,36.57
2022-08-23T14:04:28.377Z,36.99
2022-08-23T14:06:54.897Z,37.17
2022-08-23T14:09:21.426Z,37.54
2022-08-23T14:11:52.744Z,37.68
2022-08-23T14:14:19.304Z,37.87
2022-08-23T14:16:45.906Z,38.06
2022-08-23T14:19:16.514Z,38.12
2022-08-23T14:21:46.714Z,37.75
2022-08-23T14:24:13.166Z,37.47
2022-08-23T14:26:51.860Z,36.89
2022-08-23T14:29:21.512Z,36.61
2022-08-23T14:31:50.763Z,36.76
2022-08-23T14:34:17.410Z,36.69
2022-08-23T14:37:21.721Z,36.98
2022-08-23T14:39:30.589Z,36.81
2022-08-23T14:41:57.378Z,37.07
2022-08-23T14:44:24.063Z,37.54
2022-08-23T14:46:51.009Z,37.91
2022-08-23T14:49:18.200Z,37.75
2022-08-23T14:51:47.296Z,37.45
2022-08-23T14:54:18.264Z,37.29
2022-08-23T14:56:44.803Z,37.01
2022-08-23T14:59:11.920Z,37.26
2022-08-23T15:01:39.342Z,37.48
2022-08-23T15:04:06.188Z,36.89
2022-08-23T15:06:32.796Z,37.15
2022-08-23T15:08:59.316Z,36.90
2022-08-23T15:14:13.298Z,37.15
2022-08-23T15:16:40.109Z,37.17
2022-08-23T15:19:07.527Z,37.13
2022-08-23T15:21:34.477Z,36.63
2022-08-23T15:24:00.908Z,36.45
2022-08-23T15:26:30.205Z,36.29
2022-08-23T15:28:56.956Z,36.08
2022-08-23T15:31:23.975Z,35.85
2022-08-23T15:33:50.433Z,35.94
2022-08-23T15:36:16.961Z,36.03
2022-08-23T15:38:47.620Z,36.04
2022-08-23T15:41:16.481Z,36.36
2022-08-23T15:43:43.008Z,36.45
2022-08-23T15:46:12.992Z,36.16
2022-08-23T15:48:48.567Z,35.71
2022-08-23T15:51:17.865Z,35.45
2022-08-23T15:53:44.619Z,35.26
2022-08-23T15:56:15.748Z,35.02
2022-08-23T15:58:42.516Z,34.81
2022-08-23T16:01:09.697Z,34.67
2022-08-23T16:03:38.085Z,34.40
2022-08-23T16:06:05.738Z,34.11
2022-08-23T16:08:34.994Z,33.88
2022-08-23T16:11:08.992Z,33.82
2022-08-23T16:13:35.449Z,33.65
2022-08-23T16:16:03.108Z,33.61
2022-08-23T16:18:29.546Z,33.56
2022-08-23T16:20:55.975Z,33.60
2022-08-23T16:23:22.909Z,34.10
2022-08-23T16:25:49.433Z,34.54
2022-08-23T16:28:16.492Z,34.85
2022-08-23T16:30:42.993Z,35.05
2022-08-23T16:33:09.500Z,34.93
2022-08-23T16:35:36.028Z,34.76
2022-08-23T16:38:02.444Z,34.60
2022-08-23T16:40:28.904Z,34.33
2022-08-23T16:42:56.357Z,34.13
2022-08-23T16:45:25.110Z,33.86
2022-08-23T16:47:52.821Z,33.70
2022-08-23T16:50:19.294Z,33.57
2022-08-23T16:52:45.717Z,33.48
2022-08-23T16:55:12.595Z,33.31
2022-08-23T16:57:40.124Z,33.17
2022-08-23T17:00:11.292Z,33.13
2022-08-23T17:02:38.396Z,33.03
2022-08-23T17:05:07.843Z,32.98
2022-08-23T17:07:34.569Z,32.87
2022-08-23T17:10:01.126Z,32.77
2022-08-23T17:12:28.527Z,32.70
2022-08-23T17:14:57.185Z,32.58
2022-08-23T17:17:24.474Z,32.52
2022-08-23T17:19:50.902Z,32.47
2022-08-23T17:22:17.337Z,32.42
2022-08-23T17:24:44.319Z,32.38
2022-08-23T17:27:19.306Z,32.33
2022-08-23T17:29:46.148Z,32.25
2022-08-23T17:32:13.084Z,32.18
2022-08-23T17:34:39.647Z,32.12
2022-08-23T17:37:15.671Z,32.05
2022-08-23T17:39:42.225Z,31.94
2022-08-23T17:42:08.736Z,31.79
2022-08-23T17:44:36.135Z,31.67
2022-08-23T17:47:07.638Z,31.54
2022-08-23T17:49:34.602Z,31.41
2022-08-23T17:52:03.103Z,31.32
2022-08-23T17:54:29.548Z,31.15
2022-08-23T17:56:56.940Z,31.03
2022-08-23T17:59:23.404Z,30.90
2022-08-23T18:01:49.854Z,30.78
2022-08-23T18:04:16.599Z,30.65
2022-08-23T18:06:43.046Z,30.50
2022-08-23T18:09:10.171Z,30.36
2022-08-23T18:11:36.647Z,30.24
2022-08-23T18:14:03.925Z,30.13
2022-08-23T18:16:35.291Z,29.99
2022-08-23T18:19:04.163Z,29.86
2022-08-23T18:21:31.018Z,29.75
2022-08-23T18:23:58.847Z,29.64
2022-08-23T18:26:44.236Z,29.55
2022-08-23T18:29:12.256Z,29.44
2022-08-23T18:31:40.829Z,29.36
2022-08-23T18:34:08.024Z,29.27
2022-08-23T18:36:35.317Z,29.16
2022-08-23T18:39:01.833Z,29.08
2022-08-23T18:41:28.248Z,29.02
2022-08-23T18:43:54.721Z,28.95
2022-08-23T18:46:21.137Z,28.89
2022-08-23T18:48:47.918Z,28.80
2022-08-23T18:51:20.691Z,28.71
2022-08-23T18:53:47.151Z,28.60
2022-08-23T18:56:13.629Z,28.50
2022-08-23T18:58:40.039Z,28.41
2022-08-23T19:01:20.979Z,28.31
2022-08-23T19:03:47.703Z,28.22
2022-08-23T19:06:14.169Z,28.14
2022-08-23T19:08:40.642Z,28.08
2022-08-23T19:11:07.102Z,27.94
2022-08-23T19:13:33.876Z,27.86
2022-08-23T19:16:00.722Z,27.78
2022-08-23T19:18:27.743Z,27.68
2022-08-23T19:20:55.916Z,27.53
2022-08-23T19:23:22.585Z,27.46
2022-08-23T19:25:49.336Z,27.35
2022-08-23T19:28:17.284Z,27.27
2022-08-23T19:30:43.965Z,27.19
2022-08-23T19:33:10.394Z,27.11
2022-08-23T19:35:37.307Z,27.04
2022-08-23T19:38:03.774Z,26.96
2022-08-23T19:40:30.246Z,26.84
2022-08-23T19:42:58.924Z,26.78
2022-08-23T19:45:25.841Z,26.72
2022-08-23T19:47:59.723Z,26.61
2022-08-23T19:50:27.416Z,26.52
2022-08-23T19:52:53.895Z,26.42
2022-08-23T19:55:21.659Z,26.33
2022-08-23T19:57:48.093Z,26.29
2022-08-23T20:00:19.361Z,26.25
2022-08-23T20:02:47.049Z,26.19
2022-08-23T20:05:14.097Z,26.13
2022-08-23T20:07:40.752Z,26.05
2022-08-23T20:10:08.466Z,26.03
2022-08-23T20:12:34.952Z,25.96
2022-08-23T20:15:01.941Z,25.92
2022-08-23T20:17:28.344Z,25.88
2022-08-23T20:19:54.791Z,25.82
2022-08-23T20:22:39.640Z,25.75
2022-08-23T20:25:06.963Z,25.64
2022-08-23T20:27:37.281Z,25.57
2022-08-23T20:30:08.878Z,25.50
2022-08-23T20:32:36.357Z,25.43
2022-08-23T20:35:06.395Z,25.37
2022-08-23T20:37:32.987Z,25.29
2022-08-23T20:39:59.619Z,25.24
2022-08-23T20:42:26.306Z,25.19
2022-08-23T20:44:52.912Z,25.14
2022-08-23T20:47:19.412Z,25.08
2022-08-23T20:49:46.120Z,25.00
2022-08-23T20:52:12.649Z,24.93
2022-08-23T20:54:39.171Z,24.83
2022-08-23T20:57:05.672Z,24.73
2022-08-23T20:59:32.094Z,24.66
2022-08-23T21:01:59.192Z,24.63
2022-08-23T21:04:30.195Z,24.58
2022-08-23T21:06:57.812Z,24.54
2022-08-23T21:09:29.130Z,24.50
2022-08-23T21:11:56.421Z,24.45
2022-08-23T21:14:23.167Z,24.41
2022-08-23T21:16:49.596Z,24.37
2022-08-23T21:19:16.436Z,24.34
2022-08-23T21:21:43.332Z,24.30
2022-08-23T21:24:11.292Z,24.26
2022-08-23T21:26:38.722Z,24.23
2022-08-23T21:29:07.509Z,24.21
2022-08-23T21:31:34.127Z,24.16
2022-08-23T21:34:00.751Z,24.12
2022-08-23T21:36:27.799Z,24.06
2022-08-23T21:38:54.286Z,24.02
2022-08-23T21:41:48.146Z,23.94
2022-08-23T21:44:19.318Z,23.87
2022-08-23T21:46:47.960Z,23.83
2022-08-23T21:49:16.087Z,23.81
2022-08-23T21:51:44.581Z,23.76
2022-08-23T21:54:12.739Z,23.71
2022-08-23T21:56:40.116Z,23.65
2022-08-23T21:59:09.911Z,23.60
2022-08-23T22:01:37.142Z,23.55
2022-08-23T22:04:06.451Z,23.51
2022-08-23T22:06:34.197Z,23.48
2022-08-23T22:09:00.979Z,23.48
2022-08-23T22:11:28.112Z,23.46
2022-08-23T22:13:54.537Z,23.43
2022-08-23T22:16:22.446Z,23.41
2022-08-23T22:18:48.990Z,23.35
2022-08-23T22:21:15.446Z,23.28
2022-08-23T22:23:44.672Z,23.20
2022-08-23T22:26:12.173Z,23.15
2022-08-23T22:28:39.599Z,23.06
2022-08-23T22:31:07.212Z,23.00
2022-08-23T22:33:34.224Z,22.91
2022-08-23T22:36:10.471Z,22.87
2022-08-23T22:38:38.173Z,22.78
2022-08-23T22:41:04.784Z,22.75
2022-08-23T22:43:31.220Z,22.71
2022-08-23T22:46:00.811Z,22.69
2022-08-23T22:48:30.202Z,22.67
2022-08-23T22:51:14.101Z,22.64
2022-08-23T22:53:47.322Z,22.58
2022-08-23T22:56:21.691Z,22.57
2022-08-23T22:58:49.777Z,22.55
2022-08-23T23:01:27.687Z,22.53
2022-08-23T23:03:56.966Z,22.49
2022-08-23T23:06:23.625Z,22.48
2022-08-23T23:08:51.499Z,22.48
2022-08-23T23:11:19.688Z,22.42
2022-08-23T23:13:46.633Z,22.37
2022-08-23T23:16:17.584Z,22.35
2022-08-23T23:19:05.138Z,22.28
2022-08-23T23:21:38.348Z,22.19
2022-08-23T23:24:06.012Z,22.10
2022-08-23T23:26:32.657Z,22.05
2022-08-23T23:28:59.166Z,22.03
2022-08-23T23:31:25.729Z,22.01
2022-08-23T23:33:52.340Z,22.01
2022-08-23T23:36:18.924Z,22.01
2022-08-23T23:38:45.381Z,22.01
2022-08-23T23:41:12.392Z,21.96
2022-08-23T23:43:39.333Z,21.94
2022-08-23T23:46:07.280Z,21.85
2022-08-23T23:48:33.847Z,21.79
2022-08-23T23:51:00.253Z,21.76
2022-08-23T23:53:27.153Z,21.74
2022-08-23T23:56:01.319Z,21.72
2022-08-23T23:58:28.122Z,21.69
